Time;durP1;ratioP1;P1;durP2;ratioP2;P2;SDS_P1;SDS_P2;PMS_P1;PMS_P2;Temp;Humidity;BMP_temperature;BMP_pressure;BME280_temperature;BME280_humidity;BME280_pressure;Samples;Min_cycle;Max_cycle;Signal;HPM_P1;HPM_P2
2021/09/14 04:00:42;;;;;;;3.73;3.27;;;14.00;99.90;;;;;;5820019;23;20484;-74
2021/09/14 04:03:12;;;;;;;4.70;2.80;;;14.00;99.90;;;;;;4935706;29;20473;-73
2021/09/14 04:05:46;;;;;;;2.47;2.23;;;13.90;99.90;;;;;;4935608;29;20913;-74
2021/09/14 04:11:11;;;;;;;2.20;2.10;;;13.90;99.90;;;;;;4905798;29;20474;-74
2021/09/14 04:13:37;;;;;;;2.97;2.77;;;13.90;99.90;;;;;;4894018;29;20471;-73
2021/09/14 04:16:06;;;;;;;3.80;3.00;;;13.90;99.90;;;;;;4904443;29;20478;-74
2021/09/14 04:18:32;;;;;;;3.50;3.23;;;13.90;99.90;;;;;;4920058;29;20450;-74
2021/09/14 04:20:59;;;;;;;3.53;3.23;;;13.90;99.90;;;;;;4935245;29;20544;-73
2021/09/14 04:23:26;;;;;;;3.17;2.90;;;14.00;99.90;;;;;;4933867;28;20555;-73
2021/09/14 04:25:52;;;;;;;3.23;3.00;;;14.00;99.90;;;;;;4935178;29;20822;-73
2021/09/14 04:28:19;;;;;;;3.17;2.90;;;14.00;99.90;;;;;;4934597;29;20897;-73
2021/09/14 04:30:46;;;;;;;3.00;2.90;;;14.00;99.90;;;;;;4934494;29;21064;-74
2021/09/14 04:33:14;;;;;;;3.60;3.40;;;14.00;99.90;;;;;;4935607;29;20537;-74
2021/09/14 04:35:40;;;;;;;3.27;3.07;;;14.10;99.90;;;;;;4934601;29;20544;-73
2021/09/14 04:38:07;;;;;;;3.33;3.03;;;14.00;99.90;;;;;;4927160;29;20482;-73
2021/09/14 04:40:34;;;;;;;4.07;3.17;;;14.00;99.90;;;;;;4924892;29;20489;-74
2021/09/14 04:43:00;;;;;;;3.47;3.17;;;14.10;99.90;;;;;;4934103;29;20476;-74
2021/09/14 04:45:27;;;;;;;3.57;3.37;;;14.00;99.90;;;;;;4930916;29;20973;-74
2021/09/14 04:47:54;;;;;;;3.60;3.30;;;14.00;99.90;;;;;;4936281;29;20528;-73
2021/09/14 04:50:23;;;;;;;3.23;2.83;;;14.00;99.90;;;;;;4931181;29;20521;-74
2021/09/14 04:52:50;;;;;;;3.17;3.03;;;14.00;99.90;;;;;;4915843;29;20478;-73
2021/09/14 04:55:17;;;;;;;5.77;3.63;;;14.10;99.90;;;;;;4924864;29;20478;-74
2021/09/14 04:57:43;;;;;;;3.40;3.20;;;14.10;99.90;;;;;;4920262;29;20465;-74
2021/09/14 05:00:14;;;;;;;3.87;3.57;;;14.10;99.90;;;;;;4933622;29;20465;-73
2021/09/14 05:02:41;;;;;;;4.53;3.80;;;14.10;99.90;;;;;;4934902;29;20482;-74
2021/09/14 05:05:08;;;;;;;6.23;4.10;;;14.10;99.90;;;;;;4933580;29;20485;-73
2021/09/14 05:07:36;;;;;;;7.10;3.13;;;14.10;99.90;;;;;;4919719;29;20458;-74
2021/09/14 05:10:04;;;;;;;3.27;3.17;;;14.10;99.90;;;;;;4933807;29;20481;-74
2021/09/14 05:12:30;;;;;;;2.97;2.77;;;14.10;99.90;;;;;;4920030;29;20490;-74
2021/09/14 05:14:57;;;;;;;4.30;3.90;;;14.10;99.90;;;;;;4933540;29;20465;-74
2021/09/14 05:17:24;;;;;;;3.60;3.27;;;14.10;99.90;;;;;;4940190;28;21019;-74
2021/09/14 05:19:51;;;;;;;3.53;3.10;;;14.10;99.90;;;;;;4928495;29;20517;-74
2021/09/14 05:22:20;;;;;;;4.90;3.60;;;14.10;99.90;;;;;;4939628;29;20671;-74
2021/09/14 05:24:49;;;;;;;7.93;3.53;;;14.10;99.90;;;;;;4937196;29;20469;-74
2021/09/14 05:27:15;;;;;;;5.70;3.53;;;14.10;99.90;;;;;;4939457;29;20520;-73
2021/09/14 05:29:42;;;;;;;3.97;3.67;;;14.20;99.90;;;;;;4928963;29;20489;-74
2021/09/14 05:32:10;;;;;;;5.53;3.47;;;14.20;99.90;;;;;;4938513;29;20541;-74
2021/09/14 05:34:37;;;;;;;4.07;3.87;;;14.20;99.90;;;;;;4926180;29;20471;-74
2021/09/14 05:37:04;;;;;;;3.70;3.40;;;14.30;99.90;;;;;;4938320;29;20456;-74
2021/09/14 05:39:31;;;;;;;4.03;3.70;;;14.30;99.90;;;;;;4930297;29;20935;-73
2021/09/14 05:41:59;;;;;;;5.13;3.10;;;14.30;99.90;;;;;;4921625;29;20577;-73
2021/09/14 05:44:25;;;;;;;4.63;4.10;;;14.40;99.90;;;;;;4920086;29;20491;-74
2021/09/14 05:46:52;;;;;;;5.53;3.90;;;14.40;99.90;;;;;;4937867;29;20465;-72
2021/09/14 05:49:19;;;;;;;4.37;3.97;;;14.40;99.90;;;;;;4928776;29;20497;-72
2021/09/14 05:51:45;;;;;;;2.93;2.73;;;14.50;99.90;;;;;;4938199;29;20485;-73
2021/09/14 05:54:12;;;;;;;3.43;3.20;;;14.60;99.90;;;;;;4935825;28;20588;-72
2021/09/14 05:56:39;;;;;;;5.03;4.63;;;14.60;99.90;;;;;;4937782;29;20466;-73
2021/09/14 05:59:06;;;;;;;5.77;3.53;;;14.70;99.90;;;;;;4937010;29;20488;-72
2021/09/14 06:01:33;;;;;;;3.73;3.53;;;14.70;99.90;;;;;;4924714;29;20564;-72
2021/09/14 06:04:00;;;;;;;4.30;3.40;;;14.80;99.90;;;;;;4924013;29;20528;-71
2021/09/14 06:06:26;;;;;;;3.63;3.00;;;14.80;99.90;;;;;;4937841;29;20464;-72
2021/09/14 06:08:53;;;;;;;7.83;3.90;;;14.90;99.90;;;;;;4931794;29;20486;-72
2021/09/14 06:11:20;;;;;;;3.73;3.43;;;15.00;99.90;;;;;;4929307;29;20489;-73
2021/09/14 06:13:47;;;;;;;4.03;3.73;;;15.00;99.90;;;;;;4918284;29;20486;-73
2021/09/14 06:16:15;;;;;;;4.10;3.53;;;15.10;99.90;;;;;;4927746;29;20954;-73
2021/09/14 06:18:42;;;;;;;4.20;3.87;;;15.20;99.90;;;;;;4929098;29;20509;-72
2021/09/14 06:21:09;;;;;;;3.97;3.67;;;15.20;99.90;;;;;;4937045;29;20607;-73
2021/09/14 06:23:36;;;;;;;6.03;4.07;;;15.30;99.90;;;;;;4916876;29;20896;-72
2021/09/14 06:26:03;;;;;;;5.20;3.67;;;15.50;99.90;;;;;;4925867;28;20827;-72
2021/09/14 06:28:29;;;;;;;3.80;3.50;;;15.50;99.90;;;;;;4936778;29;20469;-72
2021/09/14 06:30:56;;;;;;;4.50;4.10;;;15.60;99.90;;;;;;4936744;29;20988;-72
2021/09/14 06:33:24;;;;;;;3.50;3.30;;;15.70;99.90;;;;;;4936402;29;20860;-72
2021/09/14 06:35:51;;;;;;;5.00;3.80;;;15.80;99.90;;;;;;4937141;29;20462;-72
2021/09/14 06:38:18;;;;;;;3.80;3.50;;;15.90;99.90;;;;;;4935303;28;20474;-72
2021/09/14 06:40:44;;;;;;;4.50;4.17;;;16.10;99.90;;;;;;4929332;29;21002;-72
2021/09/14 06:43:11;;;;;;;5.10;3.43;;;16.10;99.90;;;;;;4932406;29;20462;-73
2021/09/14 06:45:38;;;;;;;4.10;3.80;;;16.10;99.90;;;;;;4935495;29;20476;-72
2021/09/14 06:48:05;;;;;;;7.80;4.40;;;16.10;99.90;;;;;;4936533;29;21038;-72
2021/09/14 06:50:33;;;;;;;8.23;7.50;;;16.20;99.90;;;;;;4937001;29;20493;-72
2021/09/14 06:53:00;;;;;;;9.50;8.43;;;16.30;99.90;;;;;;4937165;29;20505;-72
2021/09/14 06:55:27;;;;;;;10.87;8.97;;;16.40;99.90;;;;;;4936822;29;20481;-72
2021/09/14 06:57:53;;;;;;;6.07;5.00;;;16.40;99.90;;;;;;4936538;29;20482;-73
2021/09/14 07:00:22;;;;;;;4.77;4.37;;;16.50;99.90;;;;;;4932844;29;20526;-72
2021/09/14 07:02:48;;;;;;;4.33;4.10;;;16.50;99.90;;;;;;4928941;29;20546;-71
2021/09/14 07:05:18;;;;;;;6.60;4.17;;;16.50;99.90;;;;;;4927190;29;20524;-71
2021/09/14 07:07:46;;;;;;;4.60;4.10;;;16.50;99.90;;;;;;4926776;29;20470;-72
2021/09/14 07:10:13;;;;;;;8.40;4.50;;;16.50;99.90;;;;;;4935719;29;20493;-72
2021/09/14 07:12:39;;;;;;;6.00;4.17;;;16.60;99.90;;;;;;4929922;29;20947;-72
2021/09/14 07:15:07;;;;;;;6.20;5.70;;;16.60;99.90;;;;;;4924106;29;20501;-71
2021/09/14 07:17:37;;;;;;;4.63;4.27;;;16.60;99.90;;;;;;4936715;29;20902;-72
2021/09/14 07:20:04;;;;;;;4.23;3.87;;;16.50;99.90;;;;;;4936005;28;20482;-72
2021/09/14 07:22:31;;;;;;;4.47;3.87;;;16.50;99.90;;;;;;4936168;29;20493;-72
2021/09/14 07:24:59;;;;;;;5.23;4.87;;;16.50;99.90;;;;;;4934940;29;20838;-72
2021/09/14 07:27:26;;;;;;;4.83;4.40;;;16.50;99.90;;;;;;4926843;29;20521;-73
2021/09/14 07:29:52;;;;;;;5.20;3.70;;;16.50;99.90;;;;;;4918111;29;20498;-72
2021/09/14 07:32:19;;;;;;;5.97;4.10;;;16.50;99.90;;;;;;4926349;29;20489;-72
2021/09/14 07:34:46;;;;;;;4.20;3.93;;;16.50;99.90;;;;;;4928625;29;20542;-71
2021/09/14 07:37:12;;;;;;;4.83;4.40;;;16.50;99.90;;;;;;4925170;29;20466;-72
2021/09/14 07:39:39;;;;;;;4.80;4.10;;;16.60;99.90;;;;;;4929172;29;20514;-72
2021/09/14 07:42:07;;;;;;;5.07;4.57;;;16.60;99.90;;;;;;4935336;28;20485;-72
2021/09/14 07:44:34;;;;;;;4.30;3.10;;;16.70;99.90;;;;;;4931219;29;20459;-72
2021/09/14 07:47:00;;;;;;;4.17;3.90;;;16.70;99.90;;;;;;4935648;29;20472;-71
2021/09/14 07:49:27;;;;;;;3.00;2.80;;;16.80;99.90;;;;;;4931753;29;20542;-72
2021/09/14 07:51:54;;;;;;;3.57;3.03;;;16.90;99.90;;;;;;4935936;29;20553;-71
2021/09/14 07:54:20;;;;;;;5.87;2.83;;;17.00;99.90;;;;;;4934059;29;21010;-71
2021/09/14 07:56:47;;;;;;;3.03;2.80;;;17.00;99.90;;;;;;4936197;29;20466;-72
2021/09/14 07:59:15;;;;;;;2.90;2.80;;;17.10;99.90;;;;;;4921267;29;20462;-71
2021/09/14 08:01:42;;;;;;;2.67;2.57;;;17.10;99.90;;;;;;4928894;28;20989;-71
2021/09/14 08:04:09;;;;;;;5.50;2.57;;;17.20;99.90;;;;;;4932660;29;20517;-71
2021/09/14 08:06:35;;;;;;;2.37;2.23;;;17.30;99.90;;;;;;4916797;29;20525;-71
2021/09/14 08:09:02;;;;;;;2.87;2.77;;;17.40;99.90;;;;;;4926528;29;20520;-72
2021/09/14 08:11:28;;;;;;;2.63;2.50;;;17.40;99.90;;;;;;4932263;29;20552;-71
2021/09/14 08:13:56;;;;;;;4.00;3.90;;;17.50;99.90;;;;;;4930166;29;20801;-72
2021/09/14 08:16:24;;;;;;;2.40;2.20;;;17.60;99.90;;;;;;4928136;29;20462;-72
2021/09/14 08:18:51;;;;;;;2.60;2.50;;;17.60;99.90;;;;;;4935150;29;20552;-74
2021/09/14 08:21:18;;;;;;;2.57;2.37;;;17.70;99.90;;;;;;4923925;29;21002;-74
2021/09/14 08:23:44;;;;;;;2.70;2.40;;;17.70;99.90;;;;;;4933131;29;20457;-73
2021/09/14 08:26:11;;;;;;;2.43;2.37;;;17.70;99.90;;;;;;4927666;29;20608;-72
2021/09/14 08:28:38;;;;;;;2.47;2.37;;;17.80;99.90;;;;;;4934009;28;20461;-72
2021/09/14 08:31:04;;;;;;;2.60;2.50;;;17.90;99.90;;;;;;4926671;29;20978;-72
2021/09/14 08:33:32;;;;;;;2.10;2.00;;;17.90;99.90;;;;;;4920570;29;20470;-71
2021/09/14 08:36:00;;;;;;;2.67;2.47;;;18.00;99.90;;;;;;4935208;29;20550;-71
2021/09/14 08:38:27;;;;;;;2.17;2.07;;;18.10;99.90;;;;;;4930607;29;20459;-72
2021/09/14 08:40:54;;;;;;;1.77;1.77;;;18.20;99.90;;;;;;4929472;29;20478;-71
2021/09/14 08:43:21;;;;;;;2.37;2.27;;;18.30;99.90;;;;;;4931510;29;20462;-71
2021/09/14 08:45:48;;;;;;;2.33;2.23;;;18.30;99.90;;;;;;4932230;29;20469;-74
2021/09/14 08:48:16;;;;;;;2.20;2.10;;;18.40;99.90;;;;;;4934481;28;20552;-74
2021/09/14 08:50:44;;;;;;;2.40;2.20;;;18.50;99.90;;;;;;4926492;29;20502;-73
2021/09/14 08:53:11;;;;;;;2.53;2.13;;;18.50;99.90;;;;;;4924288;29;20537;-73
2021/09/14 08:55:37;;;;;;;2.30;2.00;;;18.60;99.90;;;;;;4921617;29;20524;-73
2021/09/14 08:58:06;;;;;;;1.90;1.90;;;18.60;99.90;;;;;;4916638;29;20983;-73
2021/09/14 09:00:34;;;;;;;2.23;2.13;;;18.60;99.90;;;;;;4919965;29;20482;-74
2021/09/14 09:03:01;;;;;;;3.10;2.80;;;18.70;99.90;;;;;;4932895;29;20521;-73
2021/09/14 09:05:32;;;;;;;2.37;2.27;;;18.70;99.90;;;;;;4933409;29;20462;-73
2021/09/14 09:08:01;;;;;;;1.80;1.80;;;18.80;99.90;;;;;;4916469;29;20789;-73
2021/09/14 09:10:28;;;;;;;2.70;1.93;;;19.00;99.90;;;;;;4931273;28;20485;-71
2021/09/14 09:12:55;;;;;;;2.37;2.37;;;19.00;99.90;;;;;;4934534;29;20468;-71
2021/09/14 09:15:23;;;;;;;2.07;2.07;;;19.00;99.90;;;;;;4934300;29;20489;-70
2021/09/14 09:18:01;;;;;;;2.70;2.60;;;19.00;99.90;;;;;;4922225;29;20534;-71
2021/09/14 09:20:28;;;;;;;2.13;1.87;;;19.00;99.90;;;;;;4922259;29;20580;-73
2021/09/14 09:23:00;;;;;;;2.63;1.90;;;19.10;99.90;;;;;;4928502;29;20855;-73
2021/09/14 09:25:27;;;;;;;2.83;2.47;;;19.10;99.90;;;;;;4920029;29;20942;-73
2021/09/14 09:28:04;;;;;;;2.33;2.20;;;19.20;99.90;;;;;;4930031;29;20466;-73
2021/09/14 09:30:33;;;;;;;2.73;2.63;;;19.20;99.90;;;;;;4915537;29;20501;-73
2021/09/14 09:33:03;;;;;;;3.10;2.90;;;19.20;99.90;;;;;;4927073;29;20569;-73
2021/09/14 09:35:31;;;;;;;2.93;2.60;;;19.20;99.90;;;;;;4930789;29;21005;-73
2021/09/14 09:37:58;;;;;;;2.00;1.90;;;19.20;99.90;;;;;;4929164;29;20462;-73
2021/09/14 09:40:27;;;;;;;2.77;2.40;;;19.30;99.90;;;;;;4930374;29;20521;-73
2021/09/14 09:42:54;;;;;;;2.63;2.50;;;19.40;99.90;;;;;;4933072;29;20473;-74
2021/09/14 09:45:21;;;;;;;2.70;2.50;;;19.40;99.90;;;;;;4937033;29;20879;-73
2021/09/14 09:47:48;;;;;;;3.10;2.90;;;19.50;99.90;;;;;;4930443;29;20497;-74
2021/09/14 09:50:15;;;;;;;2.83;2.63;;;19.50;99.90;;;;;;4934143;29;20655;-73
2021/09/14 09:52:44;;;;;;;2.30;2.20;;;19.60;99.90;;;;;;4929613;29;20484;-72
2021/09/14 09:55:11;;;;;;;3.00;2.90;;;19.70;99.90;;;;;;4932807;29;20552;-72
2021/09/14 09:57:40;;;;;;;2.67;2.47;;;19.80;99.90;;;;;;4935082;29;20473;-72
2021/09/14 10:00:11;;;;;;;2.80;2.33;;;19.80;99.90;;;;;;4936769;29;20473;-73
2021/09/14 10:02:42;;;;;;;3.00;2.90;;;19.80;99.90;;;;;;4939619;29;20529;-73
2021/09/14 10:05:11;;;;;;;2.83;2.73;;;19.90;99.90;;;;;;4939028;29;20461;-73
2021/09/14 10:07:41;;;;;;;2.67;2.57;;;19.90;99.90;;;;;;4920428;29;20546;-70
2021/09/14 10:10:08;;;;;;;2.70;2.50;;;20.00;99.90;;;;;;4918165;29;20545;-71
2021/09/14 10:12:35;;;;;;;2.23;2.10;;;20.00;99.90;;;;;;4926313;29;20474;-71
2021/09/14 10:15:06;;;;;;;2.70;2.57;;;20.10;99.90;;;;;;4918326;29;20474;-71
2021/09/14 10:17:46;;;;;;;2.43;2.37;;;20.10;99.90;;;;;;4936659;29;20482;-73
2021/09/14 10:20:14;;;;;;;3.27;3.17;;;20.10;99.90;;;;;;4937178;29;20469;-72
2021/09/14 10:22:40;;;;;;;2.40;2.30;;;20.20;99.90;;;;;;4922600;29;20548;-71
2021/09/14 10:25:11;;;;;;;3.20;3.03;;;20.20;99.90;;;;;;4936373;29;20462;-72
2021/09/14 10:27:39;;;;;;;2.90;2.83;;;20.30;99.90;;;;;;4936965;28;20492;-72
2021/09/14 10:30:10;;;;;;;2.33;2.33;;;20.30;99.90;;;;;;4936790;29;20489;-73
2021/09/14 10:32:41;;;;;;;3.20;3.10;;;20.40;99.90;;;;;;4946966;29;20462;-72
2021/09/14 10:35:09;;;;;;;2.97;2.40;;;20.40;99.90;;;;;;4937365;29;20981;-71
2021/09/14 10:37:36;;;;;;;2.30;2.20;;;20.50;99.90;;;;;;4937064;28;20552;-72
2021/09/14 10:40:12;;;;;;;2.23;2.23;;;20.50;99.90;;;;;;4935978;29;20461;-72
2021/09/14 10:42:42;;;;;;;2.80;2.70;;;20.50;99.90;;;;;;4937067;29;20810;-71
2021/09/14 10:45:12;;;;;;;2.33;2.33;;;20.50;99.90;;;;;;4936713;29;20465;-72
2021/09/14 10:47:41;;;;;;;3.20;3.00;;;20.60;99.90;;;;;;4936807;28;20493;-72
2021/09/14 10:50:09;;;;;;;4.03;3.73;;;20.50;99.90;;;;;;4935496;29;20493;-72
2021/09/14 10:52:38;;;;;;;3.23;3.13;;;20.50;99.90;;;;;;4936543;29;20461;-72
2021/09/14 10:55:10;;;;;;;2.73;2.63;;;20.60;99.90;;;;;;4935684;29;20476;-73
2021/09/14 10:57:38;;;;;;;3.27;3.17;;;20.70;99.90;;;;;;4937300;29;20466;-74
2021/09/14 11:00:07;;;;;;;3.20;2.93;;;20.70;99.90;;;;;;4935933;28;20474;-74
2021/09/14 11:02:36;;;;;;;4.90;3.60;;;20.80;99.90;;;;;;4936322;29;20884;-73
2021/09/14 11:05:03;;;;;;;3.07;2.97;;;20.90;99.90;;;;;;4936037;29;20458;-71
2021/09/14 11:07:30;;;;;;;3.10;2.80;;;20.90;99.90;;;;;;4936422;29;20533;-71
2021/09/14 11:09:58;;;;;;;2.97;2.87;;;20.90;99.90;;;;;;4934661;29;20465;-71
2021/09/14 11:12:27;;;;;;;2.63;2.63;;;21.00;99.90;;;;;;4935611;28;20557;-71
2021/09/14 11:14:55;;;;;;;4.00;3.73;;;21.00;99.90;;;;;;4936219;29;20465;-71
2021/09/14 11:17:30;;;;;;;3.40;3.30;;;20.90;99.90;;;;;;4936543;29;20598;-71
2021/09/14 11:20:09;;;;;;;2.87;2.77;;;20.90;99.90;;;;;;4942271;29;20484;-72
2021/09/14 11:22:37;;;;;;;3.60;3.47;;;21.00;99.90;;;;;;4941602;28;20544;-71
2021/09/14 11:25:06;;;;;;;3.93;3.63;;;21.00;99.90;;;;;;4937056;29;20466;-72
2021/09/14 11:27:32;;;;;;;4.40;4.10;;;21.00;99.90;;;;;;4936667;29;20462;-72
2021/09/14 11:29:59;;;;;;;3.70;3.40;;;21.10;99.90;;;;;;4936260;29;20521;-73
2021/09/14 11:32:26;;;;;;;3.97;3.87;;;21.10;99.90;;;;;;4935234;29;20548;-72
2021/09/14 11:34:54;;;;;;;3.70;3.60;;;21.10;99.90;;;;;;4935570;28;20532;-72
2021/09/14 11:37:29;;;;;;;3.60;3.50;;;21.20;99.90;;;;;;4936330;29;20861;-72
2021/09/14 11:39:56;;;;;;;3.40;3.30;;;21.20;99.90;;;;;;4928291;29;20611;-72
2021/09/14 11:42:23;;;;;;;4.67;4.37;;;21.30;99.90;;;;;;4929665;29;20489;-72
2021/09/14 11:45:01;;;;;;;4.57;4.37;;;21.40;99.90;;;;;;4935501;29;20469;-68
2021/09/14 11:47:28;;;;;;;4.13;4.03;;;21.40;99.90;;;;;;4935226;29;20576;-71
2021/09/14 11:49:55;;;;;;;3.93;3.73;;;21.30;99.90;;;;;;4934967;29;20486;-72
2021/09/14 11:52:21;;;;;;;4.27;4.07;;;21.30;99.90;;;;;;4935222;29;20536;-74
2021/09/14 11:54:50;;;;;;;3.67;3.47;;;21.30;99.90;;;;;;4934690;29;20501;-73
2021/09/14 11:57:18;;;;;;;3.90;3.80;;;21.30;99.90;;;;;;4935729;29;20546;-74
2021/09/14 11:59:44;;;;;;;4.60;4.40;;;21.50;99.90;;;;;;4934869;29;20465;-73
2021/09/14 12:02:11;;;;;;;4.73;4.40;;;21.60;99.90;;;;;;4934449;28;20501;-72
2021/09/14 12:04:38;;;;;;;4.53;4.20;;;21.60;99.90;;;;;;4935280;29;20465;-71
2021/09/14 12:07:04;;;;;;;4.33;4.13;;;21.50;99.90;;;;;;4935239;29;20465;-72
2021/09/14 12:09:31;;;;;;;4.53;4.33;;;21.50;99.90;;;;;;4933966;29;20871;-72
2021/09/14 12:12:04;;;;;;;4.30;4.20;;;21.50;99.90;;;;;;4929010;29;20498;-73
2021/09/14 12:14:31;;;;;;;4.37;4.27;;;21.50;99.90;;;;;;4916309;29;21014;-74
2021/09/14 12:16:59;;;;;;;4.83;4.63;;;21.60;99.90;;;;;;4916223;29;20932;-73
2021/09/14 12:19:27;;;;;;;4.27;4.07;;;21.70;99.90;;;;;;4919563;29;20529;-74
2021/09/14 12:21:53;;;;;;;5.00;4.80;;;21.80;99.90;;;;;;4935515;29;20486;-74
2021/09/14 12:24:20;;;;;;;5.43;5.03;;;21.90;99.90;;;;;;4933962;29;20501;-73
2021/09/14 12:26:50;;;;;;;4.37;4.20;;;22.00;99.90;;;;;;4935301;29;20469;-73
2021/09/14 12:29:20;;;;;;;5.30;5.00;;;21.90;99.90;;;;;;4934737;29;20504;-73
2021/09/14 12:31:47;;;;;;;3.83;3.73;;;22.00;99.90;;;;;;4935116;29;20891;-74
2021/09/14 12:34:15;;;;;;;5.33;5.03;;;22.10;99.90;;;;;;4934572;28;20473;-73
2021/09/14 12:36:43;;;;;;;5.33;5.03;;;22.10;99.90;;;;;;4935452;29;20910;-74
2021/09/14 12:39:10;;;;;;;7.10;5.43;;;22.00;99.90;;;;;;4933907;29;20466;-73
2021/09/14 12:41:36;;;;;;;4.80;4.60;;;21.90;99.90;;;;;;4935413;29;20576;-74
2021/09/14 12:44:05;;;;;;;5.23;4.93;;;21.90;99.90;;;;;;4934666;29;20482;-73
2021/09/14 12:46:33;;;;;;;5.73;5.40;;;22.00;99.90;;;;;;4935159;29;20472;-74
2021/09/14 12:49:01;;;;;;;6.10;5.60;;;22.00;99.90;;;;;;4934645;29;21077;-73
2021/09/14 12:51:28;;;;;;;5.67;5.40;;;22.10;99.90;;;;;;4934144;29;20870;-72
2021/09/14 12:53:54;;;;;;;5.67;5.47;;;22.30;99.90;;;;;;4933769;29;20551;-73
2021/09/14 12:56:21;;;;;;;5.80;5.40;;;22.40;99.90;;;;;;4935068;29;20469;-69
2021/09/14 12:58:48;;;;;;;6.20;5.87;;;22.40;99.90;;;;;;4934727;28;20477;-69
2021/09/14 13:01:14;;;;;;;5.43;5.23;;;22.30;99.90;;;;;;4932203;29;20568;-72
2021/09/14 13:03:42;;;;;;;7.57;7.03;;;22.30;99.90;;;;;;4934643;29;20880;-74
2021/09/14 13:06:09;;;;;;;5.90;5.47;;;22.20;99.90;;;;;;4934585;29;20505;-74
2021/09/14 13:08:36;;;;;;;6.07;5.63;;;22.20;99.90;;;;;;4934113;28;20476;-74
2021/09/14 13:11:02;;;;;;;5.70;5.40;;;22.30;99.90;;;;;;4934484;29;20544;-73
2021/09/14 13:16:14;;;;;;;5.93;5.63;;;22.10;99.90;;;;;;4934482;29;20448;-73
2021/09/14 13:18:44;;;;;;;5.50;5.20;;;22.00;99.90;;;;;;4934465;29;20516;-73
2021/09/14 13:21:11;;;;;;;4.90;4.70;;;22.10;99.90;;;;;;4934312;29;20999;-73
2021/09/14 13:23:39;;;;;;;5.43;5.03;;;22.20;99.90;;;;;;4933624;29;20466;-73
2021/09/14 13:26:06;;;;;;;5.23;5.03;;;22.30;99.90;;;;;;4934434;29;20488;-73
2021/09/14 13:28:33;;;;;;;6.00;5.70;;;22.30;99.90;;;;;;4934632;29;20545;-73
2021/09/14 13:31:00;;;;;;;5.17;4.80;;;22.30;99.90;;;;;;4934109;28;20961;-72
2021/09/14 13:33:27;;;;;;;5.43;5.17;;;22.40;99.90;;;;;;4938214;29;20521;-74
2021/09/14 13:35:56;;;;;;;5.10;4.93;;;22.40;99.90;;;;;;4937890;29;20473;-74
2021/09/14 13:38:23;;;;;;;5.03;4.80;;;22.40;99.90;;;;;;4938009;29;20536;-71
2021/09/14 13:40:52;;;;;;;4.63;4.53;;;22.40;99.90;;;;;;4937457;29;20488;-71
2021/09/14 13:43:33;;;;;;;5.40;5.17;;;22.50;99.90;;;;;;4938766;29;20822;-72
2021/09/14 13:46:11;;;;;;;5.60;5.30;;;22.60;99.90;;;;;;4938029;29;20473;-72
2021/09/14 13:48:40;;;;;;;5.27;5.00;;;22.60;99.90;;;;;;4931537;29;20462;-72
2021/09/14 13:51:08;;;;;;;5.67;5.27;;;22.60;99.90;;;;;;4934952;29;20659;-72
2021/09/14 13:53:35;;;;;;;5.40;5.10;;;22.50;99.90;;;;;;4935466;29;21020;-72
2021/09/14 13:56:02;;;;;;;5.60;5.37;;;22.50;99.90;;;;;;4946079;29;20464;-72
2021/09/14 13:58:29;;;;;;;6.17;5.80;;;22.50;99.90;;;;;;4942053;29;20906;-71
2021/09/14 14:00:56;;;;;;;5.90;5.47;;;22.50;99.90;;;;;;4937655;29;20576;-73
2021/09/14 14:03:23;;;;;;;6.57;4.97;;;22.50;99.90;;;;;;4937569;29;20830;-73
2021/09/14 14:05:50;;;;;;;5.60;5.17;;;22.60;99.90;;;;;;4936476;29;20470;-70
2021/09/14 14:08:18;;;;;;;5.50;5.00;;;22.80;99.90;;;;;;4938167;28;20474;-70
2021/09/14 14:10:46;;;;;;;6.07;5.60;;;22.90;99.90;;;;;;4947236;29;20544;-71
2021/09/14 14:13:13;;;;;;;5.47;5.07;;;23.00;99.90;;;;;;4933715;29;20494;-71
2021/09/14 14:15:40;;;;;;;5.30;5.10;;;23.00;99.90;;;;;;4949880;29;20969;-70
2021/09/14 14:18:07;;;;;;;5.70;5.40;;;22.90;99.90;;;;;;4943383;28;20517;-70
2021/09/14 14:20:33;;;;;;;4.93;4.73;;;22.70;99.90;;;;;;4937647;29;20855;-71
2021/09/14 14:23:00;;;;;;;5.40;5.20;;;22.60;99.90;;;;;;4936306;29;20551;-71
2021/09/14 14:25:28;;;;;;;6.00;5.70;;;22.40;99.90;;;;;;4936533;29;20473;-71
2021/09/14 14:27:55;;;;;;;6.60;6.30;;;22.30;99.90;;;;;;4940229;29;20469;-72
2021/09/14 14:30:21;;;;;;;4.97;4.87;;;22.40;99.90;;;;;;4936821;29;20937;-72
2021/09/14 14:32:48;;;;;;;10.43;6.37;;;22.50;99.90;;;;;;4936308;29;21004;-73
2021/09/14 14:35:15;;;;;;;6.13;5.87;;;22.60;99.90;;;;;;4936767;29;20466;-73
2021/09/14 14:37:41;;;;;;;5.30;5.10;;;22.70;99.90;;;;;;4936508;28;20520;-73
2021/09/14 14:40:09;;;;;;;5.53;5.20;;;22.80;99.90;;;;;;4935994;29;20544;-73
2021/09/14 14:42:37;;;;;;;6.13;5.70;;;22.80;99.90;;;;;;4935969;29;20458;-72
2021/09/14 14:45:05;;;;;;;5.03;4.83;;;22.80;99.90;;;;;;4926422;29;21287;-72
2021/09/14 14:47:31;;;;;;;5.60;5.10;;;22.90;99.90;;;;;;4936674;29;20517;-72
2021/09/14 14:49:58;;;;;;;5.90;5.57;;;22.90;99.90;;;;;;4936317;28;20482;-71
2021/09/14 14:52:24;;;;;;;6.47;6.07;;;22.80;99.90;;;;;;4935986;29;20485;-73
2021/09/14 14:54:51;;;;;;;5.67;5.47;;;22.70;99.90;;;;;;4941019;29;20465;-74
2021/09/14 14:57:18;;;;;;;5.80;5.50;;;22.60;99.90;;;;;;4943132;28;20950;-73
2021/09/14 14:59:46;;;;;;;5.53;5.30;;;22.60;99.90;;;;;;4943375;29;20560;-72
2021/09/14 15:02:12;;;;;;;5.53;5.23;;;22.50;99.90;;;;;;4947904;28;20663;-73
2021/09/14 15:04:39;;;;;;;5.70;5.40;;;22.50;99.90;;;;;;4936642;29;20468;-74
2021/09/14 15:07:06;;;;;;;5.47;5.17;;;22.50;99.90;;;;;;4943470;29;20473;-73
2021/09/14 15:09:32;;;;;;;5.57;5.33;;;22.40;99.90;;;;;;4917374;28;20498;-74
2021/09/14 15:11:59;;;;;;;5.43;5.13;;;22.30;99.90;;;;;;4918006;29;20498;-73
2021/09/14 15:14:26;;;;;;;5.00;4.70;;;22.30;99.90;;;;;;4933717;28;20474;-74
2021/09/14 15:16:53;;;;;;;5.73;5.40;;;22.20;99.90;;;;;;4936945;29;20466;-74
2021/09/14 15:19:20;;;;;;;5.30;5.00;;;22.20;99.90;;;;;;4944094;29;20469;-73
2021/09/14 15:21:48;;;;;;;5.63;5.33;;;22.30;99.90;;;;;;4955925;28;20539;-74
2021/09/14 15:24:15;;;;;;;5.50;5.20;;;22.30;99.90;;;;;;4938570;28;20489;-74
2021/09/14 15:26:41;;;;;;;5.10;4.90;;;22.30;99.90;;;;;;4937019;29;20588;-74
2021/09/14 15:29:08;;;;;;;5.20;5.00;;;22.20;99.90;;;;;;4931889;29;20516;-72
2021/09/14 15:31:35;;;;;;;5.17;4.97;;;22.20;99.90;;;;;;4935684;29;20985;-75
2021/09/14 15:34:03;;;;;;;5.20;4.90;;;22.20;99.90;;;;;;4935345;28;20544;-73
2021/09/14 15:36:29;;;;;;;6.20;5.70;;;22.10;99.90;;;;;;4935515;29;20466;-74
2021/09/14 15:38:56;;;;;;;5.60;5.40;;;22.10;99.90;;;;;;4933310;29;20458;-68
2021/09/14 15:41:23;;;;;;;5.63;5.33;;;22.10;99.90;;;;;;4934845;29;20545;-70
2021/09/14 15:43:49;;;;;;;5.70;5.40;;;22.10;99.90;;;;;;4935096;29;20592;-70
2021/09/14 15:46:16;;;;;;;5.17;4.97;;;22.10;99.90;;;;;;4934479;29;20560;-72
2021/09/14 15:48:44;;;;;;;5.50;5.23;;;22.10;99.90;;;;;;4935455;29;20835;-72
2021/09/14 15:51:12;;;;;;;5.70;5.40;;;22.10;99.90;;;;;;4940819;29;20485;-73
2021/09/14 15:53:39;;;;;;;7.03;6.33;;;22.00;99.90;;;;;;4934897;29;20492;-73
2021/09/14 15:56:07;;;;;;;5.90;5.60;;;22.00;99.90;;;;;;4936621;28;20525;-72
2021/09/14 15:58:33;;;;;;;5.97;5.70;;;22.00;99.90;;;;;;4937820;29;20458;-72
2021/09/14 16:01:00;;;;;;;5.40;5.10;;;22.00;99.90;;;;;;4936772;29;20982;-72
2021/09/14 16:03:28;;;;;;;5.83;5.53;;;22.00;99.90;;;;;;4924104;29;20960;-73
2021/09/14 16:05:57;;;;;;;5.10;4.93;;;21.90;99.90;;;;;;4934921;29;20488;-74
2021/09/14 16:08:25;;;;;;;6.03;5.63;;;21.90;99.90;;;;;;4935450;28;20481;-73
2021/09/14 16:10:51;;;;;;;5.93;5.47;;;21.80;99.90;;;;;;4933782;29;20481;-74
2021/09/14 16:13:18;;;;;;;4.60;4.23;;;21.80;99.90;;;;;;4935854;29;20596;-73
2021/09/14 16:15:45;;;;;;;5.83;5.53;;;21.70;99.90;;;;;;4936068;29;21042;-72
2021/09/14 16:18:12;;;;;;;5.13;4.83;;;21.70;99.90;;;;;;4936761;28;20485;-73
2021/09/14 16:20:38;;;;;;;5.07;4.77;;;21.60;99.90;;;;;;4935519;29;20521;-74
2021/09/14 16:23:05;;;;;;;5.57;5.10;;;21.60;99.90;;;;;;4935073;29;20942;-73
2021/09/14 16:25:33;;;;;;;5.00;4.80;;;21.50;99.90;;;;;;4934745;29;20501;-75
2021/09/14 16:28:00;;;;;;;5.13;4.83;;;21.40;99.90;;;;;;4935674;29;20473;-74
2021/09/14 16:30:27;;;;;;;5.13;4.83;;;21.40;99.90;;;;;;4931046;29;20510;-73
2021/09/14 16:32:54;;;;;;;5.43;5.10;;;21.30;99.90;;;;;;4915908;29;20490;-73
2021/09/14 16:35:20;;;;;;;4.53;4.33;;;21.20;99.90;;;;;;4920151;29;20478;-74
2021/09/14 16:37:47;;;;;;;5.60;5.20;;;21.10;99.90;;;;;;4934739;29;20466;-73
2021/09/14 16:40:14;;;;;;;4.57;4.37;;;21.00;99.90;;;;;;4933625;29;20473;-73
2021/09/14 16:42:42;;;;;;;5.10;4.80;;;20.90;99.90;;;;;;4934116;29;20454;-73
2021/09/14 16:45:11;;;;;;;4.63;4.43;;;20.90;99.90;;;;;;4934929;29;20537;-73
2021/09/14 16:47:38;;;;;;;4.70;4.50;;;20.80;99.90;;;;;;4933373;29;20457;-74
2021/09/14 16:50:06;;;;;;;4.47;4.27;;;20.80;99.90;;;;;;4933857;29;20469;-74
2021/09/14 16:52:32;;;;;;;5.00;4.50;;;20.70;99.90;;;;;;4934007;29;20486;-74
2021/09/14 16:54:59;;;;;;;4.20;4.07;;;20.60;99.90;;;;;;4935131;28;20958;-73